This is the latest recevied weather packets stored in our database for station/object KHOT. If no packets are shown the sender has not sent any weather packets the latest 10 day(s).
| Time | Temp. | Humidity | Pressure | Rain* | Wind** | Luminosity | Snow |
|---|---|---|---|---|---|---|---|
| 1787592214 | 23.89° C | 88% | 1018.3 hPa | - | - | - | - |
| 1787591612 | 23.89° C | 88% | 1018.3 hPa | - | - | - | - |
| 1787591011 | 23.89° C | 88% | 1018.3 hPa | - | - | - | - |
| 1787590416 | 22.78° C | 88% | 1017.6 hPa | - | - | - | - |
| 1787589808 | 22.78° C | 88% | 1017.6 hPa | - | - | - | - |
| 1787589213 | 22.78° C | 88% | 1017.6 hPa | - | - | - | - |
| 1787588611 | 22.78° C | 88% | 1017.6 hPa | - | - | - | - |
| 1787588019 | 22.78° C | 88% | 1017.6 hPa | - | - | - | - |
| 1787587413 | 22.78° C | 88% | 1017.6 hPa | - | - | - | - |
| 1787586813 | 23.89° C | 78% | 1017.9 hPa | - | - | - | - |
| 1787586209 | 23.89° C | 78% | 1017.9 hPa | - | - | - | - |
| 1787585608 | 23.89° C | 78% | 1017.9 hPa | - | - | - | - |
| 1787585014 | 23.89° C | 78% | 1017.9 hPa | - | - | - | - |
| 1787584418 | 23.89° C | 78% | 1017.3 hPa | - | - | - | - |
| 1787583813 | 23.89° C | 78% | 1017.3 hPa | - | - | - | - |
| 1787583217 | 25° C | 73% | 1017.3 hPa | - | - | - | - |
| 1787582613 | 25° C | 73% | 1017.3 hPa | - | - | - | - |
| 1787582013 | 23.89° C | 78% | 1016.9 hPa | - | - | - | - |
| 1787581415 | 23.89° C | 78% | 1016.9 hPa | - | - | - | - |
| 1787580815 | 23.89° C | 78% | 1016.9 hPa | - | - | - | - |
| 1787580212 | 25° C | 69% | 1017.3 hPa | - | - | - | - |
| 1787579612 | 25° C | 69% | 1017.9 hPa | - | - | - | - |
| 1787579011 | 25° C | 69% | 1017.6 hPa | - | - | - | - |
| 1787578414 | 23.89° C | 73% | 1016.3 hPa | - | - | - | - |
| 1787577810 | 23.89° C | 73% | 1016.3 hPa | - | - | - | - |
* Rain since midnight (hover to see other rain measurements)
** Current wind speed in m/s (hover to see current wind gust speed)